sensor_id;sensor_type;location;lat;lon;timestamp;pressure;altitude;pressure_sealevel;temperature;humidity
15884;BME280;8040;50.254;10.960;2023-03-14T00:02:15;96311.44;;;11.63;90.44
15884;BME280;8040;50.254;10.960;2023-03-14T00:04:41;96320.16;;;11.56;90.09
15884;BME280;8040;50.254;10.960;2023-03-14T00:07:06;96307.56;;;11.48;90.22
15884;BME280;8040;50.254;10.960;2023-03-14T00:09:31;96299.84;;;11.50;89.88
15884;BME280;8040;50.254;10.960;2023-03-14T00:11:57;96297.94;;;11.51;90.26
15884;BME280;8040;50.254;10.960;2023-03-14T00:14:22;96319.22;;;11.49;90.52
15884;BME280;8040;50.254;10.960;2023-03-14T00:16:48;96338.22;;;11.49;90.29
15884;BME280;8040;50.254;10.960;2023-03-14T00:19:13;96352.56;;;11.49;90.85
15884;BME280;8040;50.254;10.960;2023-03-14T00:24:14;96385.50;;;11.48;90.27
15884;BME280;8040;50.254;10.960;2023-03-14T00:26:39;96399.19;;;11.51;90.54
15884;BME280;8040;50.254;10.960;2023-03-14T00:29:04;96407.41;;;11.55;90.08
15884;BME280;8040;50.254;10.960;2023-03-14T00:31:30;96408.63;;;11.57;90.00
15884;BME280;8040;50.254;10.960;2023-03-14T00:33:55;96400.38;;;11.54;89.75
15884;BME280;8040;50.254;10.960;2023-03-14T00:36:21;96395.75;;;11.54;89.70
15884;BME280;8040;50.254;10.960;2023-03-14T00:38:47;96392.53;;;11.49;89.31
15884;BME280;8040;50.254;10.960;2023-03-14T00:41:14;96396.81;;;11.50;89.45
15884;BME280;8040;50.254;10.960;2023-03-14T00:43:40;96396.72;;;11.46;89.27
15884;BME280;8040;50.254;10.960;2023-03-14T00:51:15;96411.16;;;11.35;88.64
15884;BME280;8040;50.254;10.960;2023-03-14T00:53:41;96412.72;;;11.36;88.57
15884;BME280;8040;50.254;10.960;2023-03-14T00:56:08;96401.44;;;11.34;88.95
15884;BME280;8040;50.254;10.960;2023-03-14T00:58:34;96382.78;;;11.32;89.14
15884;BME280;8040;50.254;10.960;2023-03-14T01:01:02;96392.16;;;11.35;89.93
15884;BME280;8040;50.254;10.960;2023-03-14T01:03:29;96377.25;;;11.29;89.51
15884;BME280;8040;50.254;10.960;2023-03-14T01:06:01;96382.69;;;11.29;89.68
15884;BME280;8040;50.254;10.960;2023-03-14T01:08:31;96385.66;;;11.24;89.45
15884;BME280;8040;50.254;10.960;2023-03-14T01:10:56;96385.66;;;11.24;89.71
15884;BME280;8040;50.254;10.960;2023-03-14T01:13:21;96379.78;;;11.22;89.72
15884;BME280;8040;50.254;10.960;2023-03-14T01:15:47;96377.97;;;11.26;90.28
15884;BME280;8040;50.254;10.960;2023-03-14T01:18:12;96371.75;;;11.25;89.69
15884;BME280;8040;50.254;10.960;2023-03-14T01:20:37;96368.16;;;11.21;90.08
15884;BME280;8040;50.254;10.960;2023-03-14T01:23:02;96371.56;;;11.18;89.78
15884;BME280;8040;50.254;10.960;2023-03-14T01:25:28;96358.34;;;11.17;89.96
15884;BME280;8040;50.254;10.960;2023-03-14T01:27:53;96360.63;;;11.15;89.47
15884;BME280;8040;50.254;10.960;2023-03-14T01:30:18;96354.75;;;11.13;89.60
15884;BME280;8040;50.254;10.960;2023-03-14T01:32:44;96354.38;;;11.14;89.55
15884;BME280;8040;50.254;10.960;2023-03-14T01:35:09;96359.81;;;11.14;89.41
15884;BME280;8040;50.254;10.960;2023-03-14T01:37:35;96358.34;;;11.17;90.40
15884;BME280;8040;50.254;10.960;2023-03-14T01:40:00;96346.63;;;11.13;90.23
15884;BME280;8040;50.254;10.960;2023-03-14T01:42:25;96341.97;;;11.13;89.73
15884;BME280;8040;50.254;10.960;2023-03-14T01:44:52;96336.13;;;11.11;89.76
15884;BME280;8040;50.254;10.960;2023-03-14T01:47:18;96331.03;;;11.10;89.90
15884;BME280;8040;50.254;10.960;2023-03-14T01:49:44;96326.75;;;11.09;89.57
15884;BME280;8040;50.254;10.960;2023-03-14T01:52:32;96315.56;;;11.10;89.26
15884;BME280;8040;50.254;10.960;2023-03-14T01:54:59;96314.06;;;11.13;89.51
15884;BME280;8040;50.254;10.960;2023-03-14T01:57:30;96310.03;;;11.07;89.42
15884;BME280;8040;50.254;10.960;2023-03-14T02:00:10;96306.28;;;11.11;88.88
15884;BME280;8040;50.254;10.960;2023-03-14T02:02:40;96292.34;;;11.13;88.64
15884;BME280;8040;50.254;10.960;2023-03-14T02:05:07;96296.31;;;11.15;88.39
15884;BME280;8040;50.254;10.960;2023-03-14T02:07:38;96295.59;;;11.18;87.88
15884;BME280;8040;50.254;10.960;2023-03-14T02:10:06;96298.72;;;11.20;87.40
15884;BME280;8040;50.254;10.960;2023-03-14T02:12:32;96289.81;;;11.20;86.88
15884;BME280;8040;50.254;10.960;2023-03-14T02:14:57;96282.53;;;11.24;86.56
15884;BME280;8040;50.254;10.960;2023-03-14T02:17:23;96291.31;;;11.33;86.21
15884;BME280;8040;50.254;10.960;2023-03-14T02:22:14;96281.25;;;11.33;85.36
15884;BME280;8040;50.254;10.960;2023-03-14T02:24:49;96278.97;;;11.35;85.30
15884;BME280;8040;50.254;10.960;2023-03-14T02:27:17;96287.34;;;11.46;84.42
15884;BME280;8040;50.254;10.960;2023-03-14T02:29:56;96278.94;;;11.51;83.51
15884;BME280;8040;50.254;10.960;2023-03-14T02:32:23;96273.16;;;11.52;83.20
15884;BME280;8040;50.254;10.960;2023-03-14T02:34:50;96259.22;;;11.54;82.39
15884;BME280;8040;50.254;10.960;2023-03-14T02:37:17;96263.53;;;11.55;82.09
15884;BME280;8040;50.254;10.960;2023-03-14T02:39:44;96269.38;;;11.57;82.27
15884;BME280;8040;50.254;10.960;2023-03-14T02:42:20;96254.94;;;11.53;81.21
15884;BME280;8040;50.254;10.960;2023-03-14T02:44:50;96238.56;;;11.49;80.60
15884;BME280;8040;50.254;10.960;2023-03-14T02:47:18;96244.78;;;11.50;80.21
15884;BME280;8040;50.254;10.960;2023-03-14T02:49:45;96245.22;;;11.52;80.48
15884;BME280;8040;50.254;10.960;2023-03-14T02:52:14;96249.22;;;11.58;80.70
15884;BME280;8040;50.254;10.960;2023-03-14T02:54:39;96248.44;;;11.57;79.93
15884;BME280;8040;50.254;10.960;2023-03-14T02:57:08;96236.09;;;11.60;79.09
15884;BME280;8040;50.254;10.960;2023-03-14T02:59:36;96224.47;;;11.59;78.47
15884;BME280;8040;50.254;10.960;2023-03-14T03:02:01;96221.13;;;11.66;78.57
15884;BME280;8040;50.254;10.960;2023-03-14T03:04:26;96228.50;;;11.65;78.63
15884;BME280;8040;50.254;10.960;2023-03-14T03:06:51;96232.78;;;11.66;78.40
15884;BME280;8040;50.254;10.960;2023-03-14T03:09:17;96233.56;;;11.67;78.23
15884;BME280;8040;50.254;10.960;2023-03-14T03:11:42;96234.75;;;11.69;78.36
15884;BME280;8040;50.254;10.960;2023-03-14T03:14:07;96231.28;;;11.69;78.30
15884;BME280;8040;50.254;10.960;2023-03-14T03:16:33;96233.19;;;11.68;78.14
15884;BME280;8040;50.254;10.960;2023-03-14T03:18:58;96241.19;;;11.61;77.43
15884;BME280;8040;50.254;10.960;2023-03-14T03:21:24;96241.34;;;11.53;77.27
15884;BME280;8040;50.254;10.960;2023-03-14T03:23:50;96236.66;;;11.50;77.88
15884;BME280;8040;50.254;10.960;2023-03-14T03:26:15;96236.66;;;11.50;78.01
15884;BME280;8040;50.254;10.960;2023-03-14T03:28:41;96236.56;;;11.46;78.38
15884;BME280;8040;50.254;10.960;2023-03-14T03:31:08;96238.31;;;11.39;78.27
15884;BME280;8040;50.254;10.960;2023-03-14T03:33:33;96221.63;;;11.37;77.96
15884;BME280;8040;50.254;10.960;2023-03-14T03:41:30;96210.56;;;11.30;78.61
15884;BME280;8040;50.254;10.960;2023-03-14T03:43:55;96204.28;;;11.26;78.63
15884;BME280;8040;50.254;10.960;2023-03-14T03:46:21;96200.78;;;11.25;78.67
15884;BME280;8040;50.254;10.960;2023-03-14T03:48:46;96201.94;;;11.24;78.49
15884;BME280;8040;50.254;10.960;2023-03-14T03:51:12;96207.50;;;11.31;78.59
15884;BME280;8040;50.254;10.960;2023-03-14T03:53:38;96208.16;;;11.25;78.12
15884;BME280;8040;50.254;10.960;2023-03-14T03:56:03;96201.50;;;11.22;78.26
15884;BME280;8040;50.254;10.960;2023-03-14T03:58:28;96198.78;;;11.22;78.42
15884;BME280;8040;50.254;10.960;2023-03-14T04:00:54;96191.88;;;11.25;78.57
15884;BME280;8040;50.254;10.960;2023-03-14T04:03:19;96187.41;;;11.17;78.19
15884;BME280;8040;50.254;10.960;2023-03-14T04:05:45;96191.22;;;11.31;78.57
15884;BME280;8040;50.254;10.960;2023-03-14T04:08:10;96186.69;;;11.35;78.24
15884;BME280;8040;50.254;10.960;2023-03-14T04:10:35;96194.56;;;11.40;77.80
15884;BME280;8040;50.254;10.960;2023-03-14T04:13:01;96175.09;;;11.38;77.07
15884;BME280;8040;50.254;10.960;2023-03-14T04:15:26;96177.63;;;11.47;77.27
15884;BME280;8040;50.254;10.960;2023-03-14T04:17:55;96182.78;;;11.52;77.11
15884;BME280;8040;50.254;10.960;2023-03-14T04:20:21;96177.84;;;11.57;76.46
15884;BME280;8040;50.254;10.960;2023-03-14T04:22:46;96175.13;;;11.57;76.64
15884;BME280;8040;50.254;10.960;2023-03-14T04:25:11;96180.84;;;11.68;76.63
15884;BME280;8040;50.254;10.960;2023-03-14T04:27:37;96177.25;;;11.64;75.22
15884;BME280;8040;50.254;10.960;2023-03-14T04:30:02;96174.81;;;11.59;75.49
15884;BME280;8040;50.254;10.960;2023-03-14T04:32:27;96168.13;;;11.56;75.39
15884;BME280;8040;50.254;10.960;2023-03-14T04:34:53;96162.28;;;11.54;75.40
15884;BME280;8040;50.254;10.960;2023-03-14T04:37:18;96164.25;;;11.57;75.34
15884;BME280;8040;50.254;10.960;2023-03-14T04:39:43;96165.34;;;11.53;75.69
15884;BME280;8040;50.254;10.960;2023-03-14T04:42:09;96150.63;;;11.54;75.98
15884;BME280;8040;50.254;10.960;2023-03-14T04:44:34;96145.50;;;11.49;75.61
15884;BME280;8040;50.254;10.960;2023-03-14T04:46:59;96145.03;;;11.47;75.89
15884;BME280;8040;50.254;10.960;2023-03-14T04:49:25;96152.03;;;11.48;76.06
15884;BME280;8040;50.254;10.960;2023-03-14T04:51:50;96146.19;;;11.46;75.85
15884;BME280;8040;50.254;10.960;2023-03-14T04:54:18;96149.97;;;11.41;75.80
15884;BME280;8040;50.254;10.960;2023-03-14T04:56:44;96143.47;;;11.46;75.97
15884;BME280;8040;50.254;10.960;2023-03-14T04:59:09;96151.69;;;11.49;76.07
15884;BME280;8040;50.254;10.960;2023-03-14T05:01:34;96142.13;;;11.55;76.26
15884;BME280;8040;50.254;10.960;2023-03-14T05:04:00;96131.38;;;11.59;76.57
15884;BME280;8040;50.254;10.960;2023-03-14T05:11:33;96135.94;;;11.55;76.15
15884;BME280;8040;50.254;10.960;2023-03-14T05:13:58;96141.34;;;11.55;76.20
15884;BME280;8040;50.254;10.960;2023-03-14T05:16:25;96140.50;;;11.51;75.60
15884;BME280;8040;50.254;10.960;2023-03-14T05:18:50;96142.78;;;11.49;75.38
15884;BME280;8040;50.254;10.960;2023-03-14T05:21:26;96146.59;;;11.48;75.68
15884;BME280;8040;50.254;10.960;2023-03-14T05:23:52;96150.53;;;11.50;76.03
15884;BME280;8040;50.254;10.960;2023-03-14T05:26:20;96138.03;;;11.46;75.90
15884;BME280;8040;50.254;10.960;2023-03-14T05:28:45;96145.41;;;11.45;76.03
15884;BME280;8040;50.254;10.960;2023-03-14T05:31:14;96134.84;;;11.40;75.61
15884;BME280;8040;50.254;10.960;2023-03-14T05:33:42;96141.03;;;11.41;76.23
15884;BME280;8040;50.254;10.960;2023-03-14T05:38:38;96141.91;;;11.45;75.18
15884;BME280;8040;50.254;10.960;2023-03-14T05:49:05;96131.19;;;11.33;75.69
15884;BME280;8040;50.254;10.960;2023-03-14T05:51:32;96128.53;;;11.36;75.69
15884;BME280;8040;50.254;10.960;2023-03-14T05:53:59;96136.56;;;11.48;75.88
15884;BME280;8040;50.254;10.960;2023-03-14T05:56:25;96134.91;;;11.44;74.97
15884;BME280;8040;50.254;10.960;2023-03-14T05:58:51;96118.16;;;11.42;74.52
15884;BME280;8040;50.254;10.960;2023-03-14T06:01:17;96124.13;;;11.47;73.98
15884;BME280;8040;50.254;10.960;2023-03-14T06:03:42;96117.19;;;11.50;73.52
15884;BME280;8040;50.254;10.960;2023-03-14T06:06:08;96118.91;;;11.58;73.37
15884;BME280;8040;50.254;10.960;2023-03-14T06:08:33;96117.34;;;11.57;72.84
15884;BME280;8040;50.254;10.960;2023-03-14T06:10:59;96117.03;;;11.58;72.91
15884;BME280;8040;50.254;10.960;2023-03-14T06:13:27;96120.97;;;11.61;72.85
15884;BME280;8040;50.254;10.960;2023-03-14T06:15:52;96116.09;;;11.70;72.53
15884;BME280;8040;50.254;10.960;2023-03-14T06:18:17;96128.84;;;11.69;72.71
15884;BME280;8040;50.254;10.960;2023-03-14T06:20:43;96120.72;;;11.69;72.86
15884;BME280;8040;50.254;10.960;2023-03-14T06:23:08;96109.94;;;11.73;72.53
15884;BME280;8040;50.254;10.960;2023-03-14T06:25:34;96108.34;;;11.72;71.83
15884;BME280;8040;50.254;10.960;2023-03-14T06:28:00;96110.78;;;11.77;71.87
15884;BME280;8040;50.254;10.960;2023-03-14T06:30:26;96108.41;;;11.75;71.42
15884;BME280;8040;50.254;10.960;2023-03-14T06:32:51;96103.00;;;11.75;71.24
15884;BME280;8040;50.254;10.960;2023-03-14T06:35:16;96116.00;;;11.85;71.60
15884;BME280;8040;50.254;10.960;2023-03-14T06:37:42;96113.47;;;11.96;71.59
15884;BME280;8040;50.254;10.960;2023-03-14T06:40:08;96110.84;;;11.99;71.17
15884;BME280;8040;50.254;10.960;2023-03-14T06:42:34;96103.06;;;11.98;70.51
15884;BME280;8040;50.254;10.960;2023-03-14T06:45:00;96097.19;;;11.96;70.63
15884;BME280;8040;50.254;10.960;2023-03-14T06:47:25;96108.97;;;12.03;70.52
15884;BME280;8040;50.254;10.960;2023-03-14T06:49:50;96097.81;;;12.08;70.02
15884;BME280;8040;50.254;10.960;2023-03-14T06:52:16;96097.59;;;12.17;70.16
15884;BME280;8040;50.254;10.960;2023-03-14T06:54:41;96095.28;;;12.19;69.70
15884;BME280;8040;50.254;10.960;2023-03-14T06:57:06;96098.00;;;12.19;69.26
15884;BME280;8040;50.254;10.960;2023-03-14T06:59:31;96100.78;;;12.22;69.34
15884;BME280;8040;50.254;10.960;2023-03-14T07:01:57;96086.72;;;12.17;68.84
15884;BME280;8040;50.254;10.960;2023-03-14T07:04:22;96089.78;;;12.15;69.29
15884;BME280;8040;50.254;10.960;2023-03-14T07:06:48;96089.25;;;12.29;69.93
15884;BME280;8040;50.254;10.960;2023-03-14T07:09:14;96085.09;;;12.35;68.80
15884;BME280;8040;50.254;10.960;2023-03-14T07:11:39;96086.25;;;12.34;67.96
15884;BME280;8040;50.254;10.960;2023-03-14T07:14:04;96085.63;;;12.44;68.34
15884;BME280;8040;50.254;10.960;2023-03-14T07:16:30;96079.03;;;12.67;69.93
15884;BME280;8040;50.254;10.960;2023-03-14T07:18:58;96082.09;;;12.66;67.40
15884;BME280;8040;50.254;10.960;2023-03-14T07:21:23;96096.34;;;12.82;67.09
15884;BME280;8040;50.254;10.960;2023-03-14T07:23:48;96096.47;;;12.89;66.34
15884;BME280;8040;50.254;10.960;2023-03-14T07:26:14;96080.88;;;13.12;67.28
15884;BME280;8040;50.254;10.960;2023-03-14T07:28:39;96082.56;;;13.20;65.78
15884;BME280;8040;50.254;10.960;2023-03-14T07:31:04;96086.41;;;13.45;64.96
15884;BME280;8040;50.254;10.960;2023-03-14T07:33:30;96085.84;;;13.62;64.61
15884;BME280;8040;50.254;10.960;2023-03-14T07:35:55;96084.00;;;13.73;64.84
15884;BME280;8040;50.254;10.960;2023-03-14T07:38:21;96090.03;;;13.89;63.13
15884;BME280;8040;50.254;10.960;2023-03-14T07:40:47;96090.63;;;13.72;61.93
15884;BME280;8040;50.254;10.960;2023-03-14T07:43:13;96086.94;;;13.57;61.65
15884;BME280;8040;50.254;10.960;2023-03-14T07:45:38;96083.63;;;13.41;61.62
15884;BME280;8040;50.254;10.960;2023-03-14T07:48:03;96082.09;;;13.44;62.15
15884;BME280;8040;50.254;10.960;2023-03-14T07:50:29;96075.06;;;13.43;62.40
15884;BME280;8040;50.254;10.960;2023-03-14T07:52:54;96080.94;;;13.45;62.19
15884;BME280;8040;50.254;10.960;2023-03-14T07:55:20;96078.72;;;13.54;62.17
15884;BME280;8040;50.254;10.960;2023-03-14T07:57:46;96084.53;;;13.52;62.02
15884;BME280;8040;50.254;10.960;2023-03-14T08:00:11;96086.00;;;13.46;61.21
15884;BME280;8040;50.254;10.960;2023-03-14T08:02:36;96080.06;;;13.37;61.05
15884;BME280;8040;50.254;10.960;2023-03-14T08:05:03;96075.47;;;13.41;61.44
15884;BME280;8040;50.254;10.960;2023-03-14T08:07:28;96080.88;;;13.38;61.26
15884;BME280;8040;50.254;10.960;2023-03-14T08:09:54;96072.22;;;13.32;61.25
15884;BME280;8040;50.254;10.960;2023-03-14T08:12:19;96075.06;;;13.43;61.83
15884;BME280;8040;50.254;10.960;2023-03-14T08:14:44;96068.06;;;13.42;60.99
15884;BME280;8040;50.254;10.960;2023-03-14T08:17:10;96070.75;;;13.38;60.67
15884;BME280;8040;50.254;10.960;2023-03-14T08:19:35;96070.00;;;13.41;60.49
15884;BME280;8040;50.254;10.960;2023-03-14T08:22:03;96077.06;;;13.46;60.76
15884;BME280;8040;50.254;10.960;2023-03-14T08:24:33;96079.78;;;13.46;60.39
15884;BME280;8040;50.254;10.960;2023-03-14T08:26:58;96086.94;;;13.57;60.03
15884;BME280;8040;50.254;10.960;2023-03-14T08:29:24;96077.16;;;13.53;59.66
15884;BME280;8040;50.254;10.960;2023-03-14T08:31:56;96082.72;;;13.63;60.05
15884;BME280;8040;50.254;10.960;2023-03-14T08:34:44;96079.16;;;13.56;60.09
15884;BME280;8040;50.254;10.960;2023-03-14T08:37:13;96080.66;;;13.53;60.29
15884;BME280;8040;50.254;10.960;2023-03-14T08:39:52;96081.16;;;13.62;60.47
15884;BME280;8040;50.254;10.960;2023-03-14T08:42:18;96078.72;;;13.54;59.92
15884;BME280;8040;50.254;10.960;2023-03-14T08:44:46;96085.28;;;13.49;60.73
15884;BME280;8040;50.254;10.960;2023-03-14T08:47:14;96077.91;;;13.50;61.07
15884;BME280;8040;50.254;10.960;2023-03-14T08:49:39;96088.69;;;13.43;60.80
15884;BME280;8040;50.254;10.960;2023-03-14T08:52:06;96093.38;;;13.42;60.49
15884;BME280;8040;50.254;10.960;2023-03-14T08:54:31;96093.31;;;13.39;59.15
15884;BME280;8040;50.254;10.960;2023-03-14T08:56:57;96108.31;;;13.55;59.75
15884;BME280;8040;50.254;10.960;2023-03-14T08:59:22;96118.53;;;13.62;59.55
15884;BME280;8040;50.254;10.960;2023-03-14T09:01:48;96102.50;;;13.57;59.36
15884;BME280;8040;50.254;10.960;2023-03-14T09:04:13;96118.44;;;13.58;59.31
15884;BME280;8040;50.254;10.960;2023-03-14T09:06:39;96118.84;;;13.57;59.77
15884;BME280;8040;50.254;10.960;2023-03-14T09:09:04;96105.22;;;13.57;59.32
15884;BME280;8040;50.254;10.960;2023-03-14T09:11:30;96114.91;;;13.54;59.34
15884;BME280;8040;50.254;10.960;2023-03-14T09:13:55;96120.28;;;13.47;59.04
15884;BME280;8040;50.254;10.960;2023-03-14T09:16:20;96138.34;;;13.33;60.05
15884;BME280;8040;50.254;10.960;2023-03-14T09:18:46;96125.06;;;13.28;60.03
15884;BME280;8040;50.254;10.960;2023-03-14T09:21:11;96132.88;;;13.29;60.17
15884;BME280;8040;50.254;10.960;2023-03-14T09:23:36;96135.09;;;13.24;60.32
15884;BME280;8040;50.254;10.960;2023-03-14T09:26:02;96143.66;;;13.22;60.38
15884;BME280;8040;50.254;10.960;2023-03-14T09:28:27;96144.31;;;13.16;60.81
15884;BME280;8040;50.254;10.960;2023-03-14T09:30:53;96136.88;;;13.13;60.92
15884;BME280;8040;50.254;10.960;2023-03-14T09:33:21;96149.75;;;13.16;61.48
15884;BME280;8040;50.254;10.960;2023-03-14T09:35:47;96135.78;;;13.17;60.99
15884;BME280;8040;50.254;10.960;2023-03-14T09:38:12;96129.75;;;13.31;61.52
15884;BME280;8040;50.254;10.960;2023-03-14T09:40:38;96129.75;;;13.31;61.37
15884;BME280;8040;50.254;10.960;2023-03-14T09:43:03;96136.84;;;13.35;61.58
15884;BME280;8040;50.254;10.960;2023-03-14T09:45:31;96127.88;;;13.35;61.44
15884;BME280;8040;50.254;10.960;2023-03-14T09:47:58;96138.13;;;13.45;62.34
15884;BME280;8040;50.254;10.960;2023-03-14T09:50:24;96136.63;;;13.47;61.42
15884;BME280;8040;50.254;10.960;2023-03-14T09:52:51;96144.41;;;13.49;61.28
15884;BME280;8040;50.254;10.960;2023-03-14T09:55:21;96137.06;;;13.53;61.39
15884;BME280;8040;50.254;10.960;2023-03-14T09:57:48;96136.28;;;13.52;61.09
15884;BME280;8040;50.254;10.960;2023-03-14T10:02:40;96139.53;;;13.61;61.32
15884;BME280;8040;50.254;10.960;2023-03-14T10:05:12;96127.94;;;13.68;61.77
15884;BME280;8040;50.254;10.960;2023-03-14T10:07:38;96121.06;;;13.77;61.43
15884;BME280;8040;50.254;10.960;2023-03-14T10:10:09;96133.84;;;13.73;60.95
15884;BME280;8040;50.254;10.960;2023-03-14T10:12:36;96135.03;;;13.76;61.20
15884;BME280;8040;50.254;10.960;2023-03-14T10:15:03;96131.31;;;13.91;61.44
15884;BME280;8040;50.254;10.960;2023-03-14T10:17:37;96139.50;;;13.91;60.63
15884;BME280;8040;50.254;10.960;2023-03-14T10:20:02;96131.09;;;14.06;59.66
15884;BME280;8040;50.254;10.960;2023-03-14T10:22:31;96123.41;;;14.12;59.70
15884;BME280;8040;50.254;10.960;2023-03-14T10:25:03;96139.84;;;14.19;59.50
15884;BME280;8040;50.254;10.960;2023-03-14T10:27:30;96135.53;;;14.18;59.24
15884;BME280;8040;50.254;10.960;2023-03-14T10:29:57;96127.13;;;14.30;59.45
15884;BME280;8040;50.254;10.960;2023-03-14T10:32:27;96117.84;;;14.38;59.16
15884;BME280;8040;50.254;10.960;2023-03-14T10:37:47;96120.34;;;14.53;58.26
15884;BME280;8040;50.254;10.960;2023-03-14T10:40:13;96115.69;;;14.57;57.80
15884;BME280;8040;50.254;10.960;2023-03-14T10:42:39;96118.72;;;14.45;57.39
15884;BME280;8040;50.254;10.960;2023-03-14T10:45:22;96113.22;;;14.42;57.62
15884;BME280;8040;50.254;10.960;2023-03-14T10:47:51;96109.66;;;14.38;58.51
15884;BME280;8040;50.254;10.960;2023-03-14T10:50:24;96120.53;;;14.34;58.34
15884;BME280;8040;50.254;10.960;2023-03-14T10:52:51;96122.47;;;14.34;58.79
15884;BME280;8040;50.254;10.960;2023-03-14T10:55:17;96122.94;;;14.39;58.16
15884;BME280;8040;50.254;10.960;2023-03-14T10:57:42;96113.25;;;14.45;57.71
15884;BME280;8040;50.254;10.960;2023-03-14T11:00:15;96121.13;;;14.54;56.93
15884;BME280;8040;50.254;10.960;2023-03-14T11:02:58;96123.44;;;14.52;56.08
15884;BME280;8040;50.254;10.960;2023-03-14T11:07:53;96134.97;;;14.78;55.57
15884;BME280;8040;50.254;10.960;2023-03-14T11:10:32;96122.09;;;14.75;55.12
15884;BME280;8040;50.254;10.960;2023-03-14T11:13:01;96120.66;;;14.92;56.11
15884;BME280;8040;50.254;10.960;2023-03-14T11:20:52;96121.25;;;15.15;54.67
15884;BME280;8040;50.254;10.960;2023-03-14T11:25:58;96116.72;;;15.36;55.45
15884;BME280;8040;50.254;10.960;2023-03-14T11:30:54;96106.84;;;15.25;55.51
15884;BME280;8040;50.254;10.960;2023-03-14T11:33:21;96099.53;;;15.36;54.67
15884;BME280;8040;50.254;10.960;2023-03-14T11:39:11;96092.16;;;15.40;55.26
15884;BME280;8040;50.254;10.960;2023-03-14T11:41:29;96094.56;;;15.52;55.03
15884;BME280;8040;50.254;10.960;2023-03-14T11:43:56;96099.16;;;15.34;53.45
15884;BME280;8040;50.254;10.960;2023-03-14T11:46:27;96087.31;;;15.16;54.02
15884;BME280;8040;50.254;10.960;2023-03-14T11:51:35;96077.75;;;14.92;54.28
15884;BME280;8040;50.254;10.960;2023-03-14T11:57:25;96081.22;;;14.82;55.43
15884;BME280;8040;50.254;10.960;2023-03-14T12:05:39;96072.34;;;14.96;55.15
15884;BME280;8040;50.254;10.960;2023-03-14T12:10:51;96070.50;;;15.14;54.61
15884;BME280;8040;50.254;10.960;2023-03-14T12:13:24;96062.38;;;15.21;54.27
15884;BME280;8040;50.254;10.960;2023-03-14T12:15:55;96061.63;;;15.31;55.33
15884;BME280;8040;50.254;10.960;2023-03-14T12:21:24;96059.41;;;15.50;54.28
15884;BME280;8040;50.254;10.960;2023-03-14T12:24:16;96059.41;;;15.47;54.42
15884;BME280;8040;50.254;10.960;2023-03-14T12:26:50;96060.16;;;15.44;54.67
15884;BME280;8040;50.254;10.960;2023-03-14T12:29:18;96067.56;;;15.36;56.41
15884;BME280;8040;50.254;10.960;2023-03-14T12:31:45;96064.66;;;15.15;58.55
15884;BME280;8040;50.254;10.960;2023-03-14T12:39:13;96065.22;;;14.81;61.45
15884;BME280;8040;50.254;10.960;2023-03-14T12:41:42;96067.03;;;14.63;63.27
15884;BME280;8040;50.254;10.960;2023-03-14T12:46:53;96063.47;;;14.59;64.34
15884;BME280;8040;50.254;10.960;2023-03-14T12:49:19;96060.00;;;14.62;64.16
15884;BME280;8040;50.254;10.960;2023-03-14T12:51:44;96052.44;;;14.45;64.45
15884;BME280;8040;50.254;10.960;2023-03-14T12:59:28;96052.81;;;14.03;66.00
15884;BME280;8040;50.254;10.960;2023-03-14T13:02:09;96049.56;;;13.91;66.39
15884;BME280;8040;50.254;10.960;2023-03-14T13:04:44;96060.28;;;13.73;66.95
15884;BME280;8040;50.254;10.960;2023-03-14T13:07:15;96054.78;;;13.70;67.80
15884;BME280;8040;50.254;10.960;2023-03-14T13:12:29;96070.38;;;13.73;68.38
15884;BME280;8040;50.254;10.960;2023-03-14T13:14:57;96070.41;;;13.76;68.14
15884;BME280;8040;50.254;10.960;2023-03-14T13:17:27;96072.69;;;13.71;67.82
15884;BME280;8040;50.254;10.960;2023-03-14T13:19:55;96071.78;;;13.60;68.94
15884;BME280;8040;50.254;10.960;2023-03-14T13:22:26;96071.31;;;13.51;69.31
15884;BME280;8040;50.254;10.960;2023-03-14T13:24:59;96065.84;;;13.51;69.03
15884;BME280;8040;50.254;10.960;2023-03-14T13:27:24;96068.63;;;13.54;69.28
15884;BME280;8040;50.254;10.960;2023-03-14T13:29:50;96075.53;;;13.48;69.42
15884;BME280;8040;50.254;10.960;2023-03-14T13:32:19;96074.97;;;13.36;70.18
15884;BME280;8040;50.254;10.960;2023-03-14T13:34:46;96072.47;;;13.24;70.59
15884;BME280;8040;50.254;10.960;2023-03-14T13:48:35;96066.53;;;12.89;74.42
15884;BME280;8040;50.254;10.960;2023-03-14T13:51:05;96068.72;;;12.80;74.66
15884;BME280;8040;50.254;10.960;2023-03-14T13:53:31;96073.75;;;12.78;74.89
15884;BME280;8040;50.254;10.960;2023-03-14T13:55:57;96073.31;;;12.76;75.95
15884;BME280;8040;50.254;10.960;2023-03-14T14:01:01;96078.28;;;12.70;75.31
15884;BME280;8040;50.254;10.960;2023-03-14T14:03:27;96080.66;;;12.72;75.21
15884;BME280;8040;50.254;10.960;2023-03-14T14:05:54;96071.13;;;12.59;75.17
15884;BME280;8040;50.254;10.960;2023-03-14T14:08:39;96079.28;;;12.59;76.46
15884;BME280;8040;50.254;10.960;2023-03-14T14:14:38;96076.69;;;12.43;76.31
15884;BME280;8040;50.254;10.960;2023-03-14T14:17:11;96084.72;;;12.36;76.74
15884;BME280;8040;50.254;10.960;2023-03-14T14:19:39;96084.06;;;12.43;77.77
15884;BME280;8040;50.254;10.960;2023-03-14T14:22:29;96087.38;;;12.33;77.74
15884;BME280;8040;50.254;10.960;2023-03-14T14:24:58;96098.75;;;12.38;78.55
15884;BME280;8040;50.254;10.960;2023-03-14T14:27:37;96102.38;;;12.46;77.74
15884;BME280;8040;50.254;10.960;2023-03-14T14:33:19;96182.63;;;12.59;77.51
15884;BME280;8040;50.254;10.960;2023-03-14T14:35:52;96181.16;;;12.65;70.73
15884;BME280;8040;50.254;10.960;2023-03-14T14:38:39;96205.97;;;12.41;67.54
15884;BME280;8040;50.254;10.960;2023-03-14T14:41:04;96221.72;;;12.32;69.13
15884;BME280;8040;50.254;10.960;2023-03-14T14:43:30;96234.31;;;12.21;68.47
15884;BME280;8040;50.254;10.960;2023-03-14T14:45:59;96232.47;;;12.06;65.37
15884;BME280;8040;50.254;10.960;2023-03-14T14:48:25;96251.19;;;11.92;67.23